Time;durP1;ratioP1;P1;durP2;ratioP2;P2;SDS_P1;SDS_P2;PMS_P1;PMS_P2;Temp;Humidity;BMP_temperature;BMP_pressure;BME280_temperature;BME280_humidity;BME280_pressure;Samples;Min_cycle;Max_cycle;Signal;HPM_P1;HPM_P2
2022/06/18 00:00:49;;;;;;;1.90;1.70;;;;;;;;;;4957043;28;20189;-77
2022/06/18 00:03:14;;;;;;;2.60;2.40;;;;;;;;;;4957534;28;20210;-77
2022/06/18 00:05:40;;;;;;;1.70;1.60;;;;;;;;;;4951667;28;20245;-77
2022/06/18 00:08:26;;;;;;;1.60;1.50;;;;;;;;;;4952829;28;20179;-77
2022/06/18 00:10:54;;;;;;;2.73;2.00;;;;;;;;;;4964004;28;20250;-77
2022/06/18 00:13:40;;;;;;;2.10;1.93;;;;;;;;;;4967446;28;20178;-77
2022/06/18 00:16:08;;;;;;;1.87;1.77;;;;;;;;;;4964856;28;20182;-77
2022/06/18 00:18:34;;;;;;;2.30;2.17;;;;;;;;;;4950518;28;20184;-77
2022/06/18 00:21:00;;;;;;;2.00;1.90;;;;;;;;;;4948883;29;20268;-77
2022/06/18 00:23:25;;;;;;;2.10;1.90;;;;;;;;;;4951528;28;20271;-76
2022/06/18 00:25:51;;;;;;;3.53;2.43;;;;;;;;;;4952017;28;20181;-77
2022/06/18 00:28:19;;;;;;;2.30;2.07;;;;;;;;;;4949201;28;20178;-77
2022/06/18 00:30:45;;;;;;;3.00;2.10;;;;;;;;;;4949221;29;20206;-77
2022/06/18 00:33:10;;;;;;;2.00;1.87;;;;;;;;;;4951714;28;20191;-76
2022/06/18 00:35:35;;;;;;;2.50;2.30;;;;;;;;;;4950642;29;20183;-77
2022/06/18 00:38:02;;;;;;;2.23;2.10;;;;;;;;;;4950733;29;20204;-77
2022/06/18 00:40:27;;;;;;;2.73;2.40;;;;;;;;;;4951236;29;20186;-76
2022/06/18 00:42:54;;;;;;;2.23;2.03;;;;;;;;;;4948324;28;20186;-77
2022/06/18 00:45:23;;;;;;;3.70;2.30;;;;;;;;;;4956667;28;20178;-76
2022/06/18 00:48:00;;;;;;;2.53;2.33;;;;;;;;;;4950830;28;20313;-77
2022/06/18 00:50:37;;;;;;;3.03;2.63;;;;;;;;;;4954944;28;20178;-77
2022/06/18 00:53:05;;;;;;;2.73;2.47;;;;;;;;;;4939797;29;20273;-76
2022/06/18 00:55:33;;;;;;;2.50;2.30;;;;;;;;;;4964711;28;20433;-77
2022/06/18 00:58:03;;;;;;;2.73;2.53;;;;;;;;;;4949452;28;20190;-77
2022/06/18 01:00:32;;;;;;;3.77;2.70;;;;;;;;;;4950102;28;20205;-76
2022/06/18 01:02:58;;;;;;;2.77;2.57;;;;;;;;;;4946315;28;20179;-76
2022/06/18 01:05:25;;;;;;;3.50;2.60;;;;;;;;;;4952462;28;20211;-77
2022/06/18 01:07:54;;;;;;;2.77;2.57;;;;;;;;;;4971926;28;20193;-76
2022/06/18 01:10:41;;;;;;;3.10;2.80;;;;;;;;;;4953885;28;20212;-76
2022/06/18 01:13:08;;;;;;;4.70;2.57;;;;;;;;;;4955529;28;20200;-77
2022/06/18 01:15:33;;;;;;;3.37;3.07;;;;;;;;;;4959106;28;20173;-76
2022/06/18 01:17:59;;;;;;;3.00;2.80;;;;;;;;;;4954207;28;20184;-76
2022/06/18 01:20:24;;;;;;;3.30;2.90;;;;;;;;;;4971107;28;20180;-77
2022/06/18 01:23:06;;;;;;;3.00;2.80;;;;;;;;;;4960211;28;20278;-77
2022/06/18 01:25:31;;;;;;;4.07;3.00;;;;;;;;;;4964831;28;20185;-77
2022/06/18 01:27:57;;;;;;;3.17;2.70;;;;;;;;;;4946566;28;20189;-76
2022/06/18 01:30:23;;;;;;;2.67;2.40;;;;;;;;;;4969576;28;20188;-77
2022/06/18 01:32:49;;;;;;;2.80;2.17;;;;;;;;;;4970665;28;20182;-76
2022/06/18 01:35:17;;;;;;;3.10;2.40;;;;;;;;;;4952234;28;20184;-76
2022/06/18 01:37:42;;;;;;;3.27;2.60;;;;;;;;;;4971732;28;20212;-77
2022/06/18 01:40:10;;;;;;;4.93;2.23;;;;;;;;;;4953833;28;20255;-76
2022/06/18 01:42:40;;;;;;;2.83;2.53;;;;;;;;;;4951631;28;20180;-77
2022/06/18 01:45:07;;;;;;;4.13;2.40;;;;;;;;;;4970602;28;20179;-76
2022/06/18 01:47:37;;;;;;;4.93;2.67;;;;;;;;;;4952696;28;20189;-76
2022/06/18 01:50:21;;;;;;;2.53;2.33;;;;;;;;;;4970410;28;20255;-76
2022/06/18 01:52:47;;;;;;;3.07;2.47;;;;;;;;;;4963888;28;20209;-77
2022/06/18 01:55:15;;;;;;;2.27;2.07;;;;;;;;;;4956334;28;20184;-77
2022/06/18 01:57:44;;;;;;;2.50;2.30;;;;;;;;;;4954050;28;20183;-77
2022/06/18 02:00:14;;;;;;;2.57;1.80;;;;;;;;;;4952608;28;20261;-76
2022/06/18 02:02:41;;;;;;;3.70;2.10;;;;;;;;;;4950729;28;20282;-77
2022/06/18 02:05:07;;;;;;;2.70;2.07;;;;;;;;;;4954395;28;20318;-77
2022/06/18 02:07:33;;;;;;;2.40;2.20;;;;;;;;;;4960738;28;20219;-77
2022/06/18 02:10:05;;;;;;;2.43;2.23;;;;;;;;;;4970926;28;20192;-77
2022/06/18 02:12:35;;;;;;;5.90;2.43;;;;;;;;;;4972519;28;20233;-76
2022/06/18 02:15:10;;;;;;;2.47;1.93;;;;;;;;;;4951760;28;20214;-76
2022/06/18 02:17:36;;;;;;;2.60;2.23;;;;;;;;;;4970241;28;20182;-76
2022/06/18 02:20:21;;;;;;;1.93;1.83;;;;;;;;;;4969148;28;20211;-76
2022/06/18 02:22:48;;;;;;;2.27;2.17;;;;;;;;;;4957497;28;20207;-76
2022/06/18 02:25:15;;;;;;;2.20;1.90;;;;;;;;;;4970767;28;20191;-77
2022/06/18 02:27:41;;;;;;;2.30;2.10;;;;;;;;;;4958879;28;20188;-76
2022/06/18 02:30:13;;;;;;;3.10;2.10;;;;;;;;;;4956247;28;20176;-76
2022/06/18 02:32:43;;;;;;;2.17;2.00;;;;;;;;;;4971892;28;20303;-77
2022/06/18 02:35:13;;;;;;;1.80;1.70;;;;;;;;;;4954159;28;20239;-76
2022/06/18 02:37:38;;;;;;;2.17;1.90;;;;;;;;;;4963873;28;20199;-76
2022/06/18 02:40:04;;;;;;;2.20;2.00;;;;;;;;;;4956848;28;20221;-76
2022/06/18 02:42:31;;;;;;;2.23;2.03;;;;;;;;;;4972258;28;20190;-76
2022/06/18 02:44:56;;;;;;;1.90;1.80;;;;;;;;;;4957065;28;20188;-76
2022/06/18 02:47:22;;;;;;;1.90;1.80;;;;;;;;;;4958517;28;20191;-76
2022/06/18 02:49:53;;;;;;;2.70;1.80;;;;;;;;;;4953862;28;20189;-76
2022/06/18 02:52:19;;;;;;;2.10;1.90;;;;;;;;;;4965466;28;20208;-76
2022/06/18 02:54:44;;;;;;;1.70;1.60;;;;;;;;;;4959659;28;20183;-77
2022/06/18 02:57:15;;;;;;;1.57;1.47;;;;;;;;;;4959550;28;20174;-76
2022/06/18 02:59:41;;;;;;;3.77;1.73;;;;;;;;;;4972031;28;20176;-76
2022/06/18 03:02:06;;;;;;;1.83;1.73;;;;;;;;;;4959082;28;20198;-77
2022/06/18 03:04:31;;;;;;;2.43;1.63;;;;;;;;;;4954992;28;20177;-77
2022/06/18 03:06:59;;;;;;;4.07;1.90;;;;;;;;;;4955628;28;20225;-76
2022/06/18 03:09:25;;;;;;;2.03;1.83;;;;;;;;;;4950662;29;20174;-76
2022/06/18 03:12:08;;;;;;;1.70;1.60;;;;;;;;;;4952859;28;20212;-76
2022/06/18 03:14:33;;;;;;;1.70;1.60;;;;;;;;;;4945960;28;20180;-76
2022/06/18 03:16:59;;;;;;;2.10;1.90;;;;;;;;;;4951155;29;20191;-76
2022/06/18 03:19:30;;;;;;;2.33;1.73;;;;;;;;;;4946704;29;20264;-76
2022/06/18 03:21:57;;;;;;;1.90;1.80;;;;;;;;;;4948032;29;20190;-77
2022/06/18 03:24:23;;;;;;;2.93;2.00;;;;;;;;;;4965708;28;20263;-76
2022/06/18 03:26:48;;;;;;;2.03;1.87;;;;;;;;;;4953278;28;20211;-76
2022/06/18 03:29:13;;;;;;;1.70;1.60;;;;;;;;;;4950921;28;20180;-76
2022/06/18 03:31:38;;;;;;;1.73;1.63;;;;;;;;;;4949094;29;20237;-77
2022/06/18 03:34:04;;;;;;;2.20;2.00;;;;;;;;;;4952346;29;20240;-76
2022/06/18 03:36:30;;;;;;;2.67;1.73;;;;;;;;;;4952456;28;20201;-76
2022/06/18 03:38:55;;;;;;;2.33;1.90;;;;;;;;;;4950477;28;20188;-76
2022/06/18 03:41:21;;;;;;;1.80;1.67;;;;;;;;;;4953241;28;20177;-76
2022/06/18 03:43:46;;;;;;;1.67;1.57;;;;;;;;;;4952879;28;20319;-77
2022/06/18 03:46:13;;;;;;;2.30;1.90;;;;;;;;;;4952910;28;20288;-76
2022/06/18 03:48:57;;;;;;;2.17;1.97;;;;;;;;;;4952898;28;20247;-76
2022/06/18 03:51:22;;;;;;;2.37;1.90;;;;;;;;;;4954911;28;20208;-76
2022/06/18 03:53:48;;;;;;;1.63;1.53;;;;;;;;;;4951141;28;20220;-76
2022/06/18 03:56:14;;;;;;;1.83;1.70;;;;;;;;;;4952034;28;20175;-76
2022/06/18 03:58:39;;;;;;;2.60;1.80;;;;;;;;;;4952040;29;20175;-76
2022/06/18 04:01:05;;;;;;;1.80;1.70;;;;;;;;;;4952360;29;20197;-77
2022/06/18 04:03:30;;;;;;;1.90;1.80;;;;;;;;;;4951941;28;20179;-77
2022/06/18 04:05:56;;;;;;;1.90;1.80;;;;;;;;;;4957873;28;20221;-76
2022/06/18 04:08:21;;;;;;;3.17;1.97;;;;;;;;;;4955749;28;20217;-77
2022/06/18 04:10:47;;;;;;;1.93;1.80;;;;;;;;;;4958729;28;20231;-76
2022/06/18 04:13:12;;;;;;;1.90;1.80;;;;;;;;;;4951030;28;20254;-76
2022/06/18 04:15:38;;;;;;;1.83;1.73;;;;;;;;;;4970327;28;20182;-76
2022/06/18 04:18:03;;;;;;;2.57;1.90;;;;;;;;;;4972030;28;20217;-76
2022/06/18 04:20:30;;;;;;;2.90;2.57;;;;;;;;;;4962929;28;20198;-76
2022/06/18 04:22:56;;;;;;;4.33;2.30;;;;;;;;;;4962838;28;20184;-76
2022/06/18 04:25:21;;;;;;;2.57;2.37;;;;;;;;;;4953643;28;20195;-76
2022/06/18 04:27:46;;;;;;;1.90;1.80;;;;;;;;;;4953638;28;20191;-76
2022/06/18 04:30:12;;;;;;;2.00;1.90;;;;;;;;;;4957494;28;20189;-76
2022/06/18 04:32:38;;;;;;;2.30;2.10;;;;;;;;;;4969953;28;20227;-76
2022/06/18 04:35:04;;;;;;;2.00;1.90;;;;;;;;;;4950930;28;20260;-76
2022/06/18 04:37:29;;;;;;;2.50;1.83;;;;;;;;;;4954095;28;20204;-76
2022/06/18 04:39:55;;;;;;;4.70;2.63;;;;;;;;;;4951677;29;20226;-77
2022/06/18 04:42:20;;;;;;;4.03;3.63;;;;;;;;;;4970446;28;20186;-76
2022/06/18 04:44:45;;;;;;;3.83;2.10;;;;;;;;;;4970232;28;20241;-77
2022/06/18 04:47:10;;;;;;;2.20;2.00;;;;;;;;;;4958749;28;20187;-76
2022/06/18 04:49:35;;;;;;;2.60;2.10;;;;;;;;;;4955055;28;20212;-77
2022/06/18 04:52:01;;;;;;;2.60;2.33;;;;;;;;;;4954901;28;20207;-76
2022/06/18 04:54:26;;;;;;;3.40;3.10;;;;;;;;;;4955582;28;20174;-76
2022/06/18 04:56:51;;;;;;;2.60;2.40;;;;;;;;;;4949555;28;20176;-76
2022/06/18 04:59:16;;;;;;;3.30;2.43;;;;;;;;;;4960357;28;20219;-77
2022/06/18 05:01:42;;;;;;;2.20;2.10;;;;;;;;;;4954478;28;20192;-77
2022/06/18 05:04:08;;;;;;;4.10;2.10;;;;;;;;;;4966502;28;20184;-77
2022/06/18 05:06:33;;;;;;;2.17;1.97;;;;;;;;;;4951520;28;20229;-77
2022/06/18 05:08:59;;;;;;;2.30;2.20;;;;;;;;;;4949544;28;20178;-77
2022/06/18 05:11:24;;;;;;;2.10;1.90;;;;;;;;;;4950797;29;20206;-77
2022/06/18 05:13:49;;;;;;;2.10;2.00;;;;;;;;;;4952933;28;20275;-77
2022/06/18 05:16:14;;;;;;;2.30;2.10;;;;;;;;;;4949842;28;20192;-76
2022/06/18 05:18:43;;;;;;;3.10;2.10;;;;;;;;;;4951659;29;20174;-77
2022/06/18 05:21:08;;;;;;;2.90;2.70;;;;;;;;;;4951437;29;20269;-76
2022/06/18 05:23:33;;;;;;;2.10;2.00;;;;;;;;;;4949470;28;20275;-76
2022/06/18 05:25:59;;;;;;;2.20;2.07;;;;;;;;;;4948059;28;20198;-77
2022/06/18 05:28:25;;;;;;;3.00;1.93;;;;;;;;;;4942190;29;20186;-74
2022/06/18 05:30:50;;;;;;;3.50;2.13;;;;;;;;;;4949557;28;20181;-77
2022/06/18 05:33:16;;;;;;;2.47;2.00;;;;;;;;;;4947510;29;20233;-76
2022/06/18 05:35:42;;;;;;;2.00;1.90;;;;;;;;;;4950740;29;20188;-76
2022/06/18 05:38:11;;;;;;;2.10;1.90;;;;;;;;;;4951005;28;20204;-76
2022/06/18 05:40:36;;;;;;;2.17;1.97;;;;;;;;;;4948216;29;20185;-77
2022/06/18 05:43:01;;;;;;;2.07;1.97;;;;;;;;;;4950476;28;20278;-76
2022/06/18 05:45:26;;;;;;;4.43;2.37;;;;;;;;;;4950964;28;20189;-77
2022/06/18 05:47:52;;;;;;;2.30;2.10;;;;;;;;;;4949482;28;20278;-77
2022/06/18 05:50:18;;;;;;;2.40;2.20;;;;;;;;;;4949684;28;20198;-76
2022/06/18 05:52:44;;;;;;;3.80;2.00;;;;;;;;;;4952795;29;20205;-77
2022/06/18 05:55:09;;;;;;;2.53;2.33;;;;;;;;;;4954279;29;20176;-77
2022/06/18 05:57:46;;;;;;;2.83;2.30;;;;;;;;;;4951281;28;20247;-77
2022/06/18 06:00:12;;;;;;;3.40;1.93;;;;;;;;;;4951314;28;20182;-77
2022/06/18 06:02:37;;;;;;;2.77;1.97;;;;;;;;;;4951923;28;20214;-76
2022/06/18 06:05:03;;;;;;;3.30;2.93;;;;;;;;;;4952980;28;20199;-79
2022/06/18 06:07:28;;;;;;;2.00;1.80;;;;;;;;;;4949396;28;20230;-86
2022/06/18 06:12:54;;;;;;;2.40;2.00;;;;;;;;;;4937760;29;20218;-86
2022/06/18 06:15:19;;;;;;;2.47;2.20;;;;;;;;;;4947583;28;20199;-85
2022/06/18 06:17:44;;;;;;;2.90;1.90;;;;;;;;;;4969193;28;20239;-85
2022/06/18 06:20:18;;;;;;;2.87;2.10;;;;;;;;;;4948597;29;20186;-87
2022/06/18 06:22:43;;;;;;;2.20;2.00;;;;;;;;;;4951457;28;20180;-86
2022/06/18 06:25:09;;;;;;;2.33;2.10;;;;;;;;;;4953685;29;20182;-85
2022/06/18 06:27:34;;;;;;;2.60;2.40;;;;;;;;;;4951419;28;20182;-87
2022/06/18 06:29:59;;;;;;;3.70;2.30;;;;;;;;;;4954077;29;20217;-85
2022/06/18 06:32:27;;;;;;;4.23;2.20;;;;;;;;;;4950348;28;20217;-87
2022/06/18 06:34:52;;;;;;;2.47;2.27;;;;;;;;;;4951571;28;20193;-86
2022/06/18 06:37:17;;;;;;;3.03;2.10;;;;;;;;;;4952269;28;20211;-86
2022/06/18 06:39:43;;;;;;;2.20;1.97;;;;;;;;;;4949939;29;20184;-86
2022/06/18 06:42:08;;;;;;;1.90;1.80;;;;;;;;;;4969734;28;20191;-86
2022/06/18 06:44:34;;;;;;;3.10;2.37;;;;;;;;;;4952007;29;20213;-87
2022/06/18 06:46:59;;;;;;;2.63;1.90;;;;;;;;;;4952252;28;20185;-86
2022/06/18 06:49:25;;;;;;;2.00;1.90;;;;;;;;;;4949662;29;20221;-87
2022/06/18 06:51:50;;;;;;;2.30;1.90;;;;;;;;;;4945485;28;20201;-86
2022/06/18 06:54:16;;;;;;;3.87;2.30;;;;;;;;;;4955301;29;20185;-87
2022/06/18 06:59:25;;;;;;;2.27;2.00;;;;;;;;;;4955277;28;20208;-86
2022/06/18 07:01:52;;;;;;;2.23;2.03;;;;;;;;;;4952384;28;20178;-87
2022/06/18 07:04:20;;;;;;;3.47;1.90;;;;;;;;;;4953721;29;20263;-87
2022/06/18 07:06:45;;;;;;;1.80;1.70;;;;;;;;;;4950366;29;20232;-87
2022/06/18 07:09:10;;;;;;;2.55;2.35;;;;;;;;;;4949706;28;20181;-85
2022/06/18 07:11:37;;;;;;;2.25;2.10;;;;;;;;;;4952540;29;20212;-87
2022/06/18 07:14:03;;;;;;;3.13;2.20;;;;;;;;;;4948953;28;20182;-86
2022/06/18 07:16:28;;;;;;;2.80;2.40;;;;;;;;;;4951354;28;20204;-86
2022/06/18 07:18:53;;;;;;;3.80;1.80;;;;;;;;;;4951942;28;20174;-86
2022/06/18 07:21:21;;;;;;;2.67;2.47;;;;;;;;;;4952014;28;20273;-87
2022/06/18 07:23:47;;;;;;;2.30;2.10;;;;;;;;;;4949858;28;20182;-86
2022/06/18 07:26:14;;;;;;;2.63;2.40;;;;;;;;;;4946607;28;20188;-86
2022/06/18 07:28:39;;;;;;;4.53;2.65;;;;;;;;;;4950363;28;20216;-86
2022/06/18 07:31:04;;;;;;;2.33;2.20;;;;;;;;;;4962729;28;20229;-87
2022/06/18 07:33:32;;;;;;;2.40;2.20;;;;;;;;;;4946126;28;20213;-87
2022/06/18 07:35:58;;;;;;;3.30;1.90;;;;;;;;;;4952830;28;20181;-87
2022/06/18 07:38:23;;;;;;;2.03;1.92;;;;;;;;;;4974015;23;20310;-88
2022/06/18 07:40:50;;;;;;;2.55;2.35;;;;;;;;;;4990726;28;20168;-86
2022/06/18 07:43:20;;;;;;;2.28;2.08;;;;;;;;;;4985840;28;20183;-87
2022/06/18 07:45:46;;;;;;;3.30;2.03;;;;;;;;;;4992806;28;20199;-86
2022/06/18 07:48:12;;;;;;;3.35;3.15;;;;;;;;;;5004730;28;20196;-87
2022/06/18 07:50:40;;;;;;;3.50;2.20;;;;;;;;;;4990300;28;20198;-86
2022/06/18 07:53:06;;;;;;;2.95;2.30;;;;;;;;;;5003823;28;20215;-85
2022/06/18 07:55:34;;;;;;;2.22;2.05;;;;;;;;;;4988780;28;20184;-85
2022/06/18 07:57:59;;;;;;;2.28;2.10;;;;;;;;;;4991363;28;20200;-87
2022/06/18 08:00:24;;;;;;;2.25;2.08;;;;;;;;;;4991225;28;20437;-86
2022/06/18 08:02:52;;;;;;;2.45;1.65;;;;;;;;;;4986880;28;20505;-85
2022/06/18 08:05:25;;;;;;;1.80;1.70;;;;;;;;;;4999420;28;20179;-86
2022/06/18 08:07:50;;;;;;;1.75;1.52;;;;;;;;;;4990105;28;20192;-86
2022/06/18 08:10:16;;;;;;;2.20;1.80;;;;;;;;;;4990097;28;20193;-86
2022/06/18 08:12:41;;;;;;;1.83;1.60;;;;;;;;;;4988748;28;20204;-86
2022/06/18 08:15:07;;;;;;;2.55;1.60;;;;;;;;;;4995725;28;20172;-86
2022/06/18 08:17:32;;;;;;;2.47;2.28;;;;;;;;;;4989995;28;20172;-86
2022/06/18 08:19:57;;;;;;;1.90;1.80;;;;;;;;;;5079577;22;20262;-84
2022/06/18 08:22:24;;;;;;;2.22;1.98;;;;;;;;;;5022239;28;20191;-83
2022/06/18 08:24:49;;;;;;;1.85;1.75;;;;;;;;;;5005856;28;20183;-84
2022/06/18 08:27:15;;;;;;;2.00;1.90;;;;;;;;;;5009737;28;20226;-83
2022/06/18 08:29:41;;;;;;;1.95;1.77;;;;;;;;;;5032095;28;20172;-82
2022/06/18 08:32:06;;;;;;;1.88;1.75;;;;;;;;;;5013498;28;20211;-84
2022/06/18 08:34:32;;;;;;;5.07;1.55;;;;;;;;;;5009165;28;20172;-84
2022/06/18 08:36:57;;;;;;;1.60;1.50;;;;;;;;;;5006395;28;20191;-83
2022/06/18 08:39:23;;;;;;;1.92;1.80;;;;;;;;;;5008968;28;20238;-83
2022/06/18 08:41:57;;;;;;;1.73;1.60;;;;;;;;;;5009470;28;20179;-84
2022/06/18 08:44:39;;;;;;;1.85;1.75;;;;;;;;;;5008049;28;20184;-84
2022/06/18 08:47:07;;;;;;;1.52;1.42;;;;;;;;;;5009734;28;20272;-84
2022/06/18 08:49:41;;;;;;;2.40;1.70;;;;;;;;;;5008974;28;20184;-84
2022/06/18 08:52:42;;;;;;;1.80;1.70;;;;;;;;;;5010603;28;20232;-83
2022/06/18 08:55:21;;;;;;;2.45;1.58;;;;;;;;;;4966344;28;20176;-84
2022/06/18 08:57:59;;;;;;;2.80;1.42;;;;;;;;;;4970904;28;20187;-84
2022/06/18 09:00:37;;;;;;;1.88;1.70;;;;;;;;;;4975479;28;20207;-83
2022/06/18 09:03:19;;;;;;;1.52;1.42;;;;;;;;;;4969619;28;20192;-84
2022/06/18 09:06:03;;;;;;;1.80;1.70;;;;;;;;;;4964227;28;20287;-84
2022/06/18 09:08:28;;;;;;;2.40;2.13;;;;;;;;;;4971317;28;20184;-83
2022/06/18 09:11:08;;;;;;;2.13;2.00;;;;;;;;;;4971028;28;20192;-83
2022/06/18 09:13:54;;;;;;;1.85;1.75;;;;;;;;;;4964368;28;20184;-83
2022/06/18 09:16:22;;;;;;;1.98;1.88;;;;;;;;;;4969577;28;20223;-83
2022/06/18 09:18:52;;;;;;;1.80;1.58;;;;;;;;;;4988363;28;20176;-84
2022/06/18 09:21:21;;;;;;;2.33;1.50;;;;;;;;;;4971188;28;20232;-84
2022/06/18 09:23:51;;;;;;;1.90;1.80;;;;;;;;;;4987051;28;20188;-84
2022/06/18 09:26:20;;;;;;;1.55;1.45;;;;;;;;;;4977884;28;20240;-82
2022/06/18 09:28:49;;;;;;;1.33;1.33;;;;;;;;;;4979790;28;20287;-83
2022/06/18 09:31:17;;;;;;;1.83;1.58;;;;;;;;;;5009846;28;20283;-84
2022/06/18 09:33:45;;;;;;;3.15;1.83;;;;;;;;;;5010151;28;20186;-83
2022/06/18 09:36:21;;;;;;;6.05;2.55;;;;;;;;;;5012014;28;20178;-84
2022/06/18 09:38:51;;;;;;;1.98;1.63;;;;;;;;;;5012540;28;20401;-84
2022/06/18 09:41:22;;;;;;;3.65;1.95;;;;;;;;;;5021473;28;20228;-84
2022/06/18 09:43:57;;;;;;;3.83;2.05;;;;;;;;;;5013708;28;20183;-83
2022/06/18 09:46:24;;;;;;;3.50;1.83;;;;;;;;;;5010357;28;20175;-84
2022/06/18 09:48:49;;;;;;;1.90;1.70;;;;;;;;;;5011812;28;20179;-84
2022/06/18 09:51:32;;;;;;;2.50;1.60;;;;;;;;;;5010925;28;20199;-84
2022/06/18 09:54:00;;;;;;;1.55;1.45;;;;;;;;;;5013297;28;20198;-83
2022/06/18 09:56:35;;;;;;;3.83;1.73;;;;;;;;;;5013869;28;20258;-84
2022/06/18 09:59:04;;;;;;;3.15;2.13;;;;;;;;;;5029762;28;20191;-84
2022/06/18 10:01:37;;;;;;;2.97;2.08;;;;;;;;;;5012049;28;20184;-84
2022/06/18 10:06:52;;;;;;;3.90;2.30;;;;;;;;;;5012524;28;20178;-84
2022/06/18 10:09:44;;;;;;;3.60;1.90;;;;;;;;;;5020572;28;20180;-84
2022/06/18 10:12:17;;;;;;;4.75;2.20;;;;;;;;;;5009280;28;20219;-83
2022/06/18 10:14:45;;;;;;;4.28;2.20;;;;;;;;;;5016427;28;20202;-84
2022/06/18 10:17:15;;;;;;;3.10;2.15;;;;;;;;;;5010440;28;20186;-84
2022/06/18 10:22:19;;;;;;;3.92;2.70;;;;;;;;;;5155533;22;20239;-85
2022/06/18 10:24:44;;;;;;;5.45;2.47;;;;;;;;;;4997331;28;20202;-87
2022/06/18 10:27:21;;;;;;;5.30;2.60;;;;;;;;;;4983445;28;20266;-86
2022/06/18 10:29:56;;;;;;;3.08;2.40;;;;;;;;;;4985749;28;20203;-85
2022/06/18 10:32:30;;;;;;;7.85;3.25;;;;;;;;;;4983552;28;20200;-85
2022/06/18 10:35:10;;;;;;;4.05;2.42;;;;;;;;;;4983792;28;20256;-86
2022/06/18 10:38:07;;;;;;;5.80;3.08;;;;;;;;;;4972105;28;20291;-86
2022/06/18 10:40:45;;;;;;;5.18;2.75;;;;;;;;;;4980770;28;20189;-86
2022/06/18 10:43:16;;;;;;;4.88;2.95;;;;;;;;;;4976694;28;20180;-86
2022/06/18 10:45:47;;;;;;;4.55;2.58;;;;;;;;;;4979320;28;20180;-87
2022/06/18 10:48:14;;;;;;;4.35;2.60;;;;;;;;;;4982486;28;20192;-86
2022/06/18 10:50:47;;;;;;;4.78;2.80;;;;;;;;;;4998725;28;20176;-86
2022/06/18 10:53:13;;;;;;;3.67;2.30;;;;;;;;;;4984681;28;20238;-88
2022/06/18 10:55:39;;;;;;;6.32;2.90;;;;;;;;;;4996837;28;20177;-87
2022/06/18 10:58:15;;;;;;;4.50;2.70;;;;;;;;;;4981333;28;20191;-87
2022/06/18 11:00:42;;;;;;;3.40;2.20;;;;;;;;;;4977007;28;20171;-85
2022/06/18 11:03:31;;;;;;;10.20;3.22;;;;;;;;;;4988408;28;20191;-86
2022/06/18 11:05:57;;;;;;;6.60;2.63;;;;;;;;;;4970577;28;20192;-86
2022/06/18 11:08:24;;;;;;;7.47;2.83;;;;;;;;;;4975179;28;20191;-87
2022/06/18 11:10:49;;;;;;;8.27;3.13;;;;;;;;;;4978235;28;20184;-86
2022/06/18 11:13:27;;;;;;;9.00;2.60;;;;;;;;;;4976047;28;20196;-86
2022/06/18 11:16:03;;;;;;;8.50;2.58;;;;;;;;;;4970194;28;20189;-86
2022/06/18 11:18:28;;;;;;;8.45;3.35;;;;;;;;;;4978745;28;20200;-85
2022/06/18 11:21:03;;;;;;;6.80;2.50;;;;;;;;;;4977886;28;20244;-87
2022/06/18 11:23:30;;;;;;;8.88;3.60;;;;;;;;;;4980544;28;20190;-86
2022/06/18 11:25:56;;;;;;;10.38;3.65;;;;;;;;;;4973216;28;20200;-86
2022/06/18 11:28:25;;;;;;;7.15;3.00;;;;;;;;;;4975371;28;20176;-87
2022/06/18 11:30:52;;;;;;;12.75;3.20;;;;;;;;;;4969563;28;20206;-86
2022/06/18 11:33:26;;;;;;;10.52;3.67;;;;;;;;;;4975753;28;20272;-86
2022/06/18 11:35:52;;;;;;;7.03;2.95;;;;;;;;;;4974431;28;20176;-86
2022/06/18 11:38:25;;;;;;;6.35;2.83;;;;;;;;;;4974310;28;20203;-86
2022/06/18 11:40:52;;;;;;;6.75;3.20;;;;;;;;;;4974130;28;20181;-86
2022/06/18 11:43:28;;;;;;;8.63;2.72;;;;;;;;;;4977890;28;20188;-86
2022/06/18 11:45:58;;;;;;;5.72;2.78;;;;;;;;;;4971261;28;20188;-86
2022/06/18 11:48:40;;;;;;;7.22;3.05;;;;;;;;;;4970780;28;20203;-86
2022/06/18 11:51:26;;;;;;;5.20;2.50;;;;;;;;;;4982278;28;20177;-85
2022/06/18 11:53:51;;;;;;;9.45;2.97;;;;;;;;;;4963429;28;20264;-86
2022/06/18 11:56:23;;;;;;;8.98;3.30;;;;;;;;;;4966297;28;20261;-86
2022/06/18 11:58:52;;;;;;;10.25;3.17;;;;;;;;;;4973047;28;20227;-86
2022/06/18 12:01:20;;;;;;;6.78;3.60;;;;;;;;;;4972882;28;20212;-87
2022/06/18 12:04:05;;;;;;;7.28;3.47;;;;;;;;;;4976115;28;20176;-87
2022/06/18 12:06:39;;;;;;;8.35;3.40;;;;;;;;;;4972962;28;20537;-87
2022/06/18 12:09:05;;;;;;;20.00;3.83;;;;;;;;;;4968377;28;20180;-86
2022/06/18 12:11:30;;;;;;;6.90;3.10;;;;;;;;;;4972968;28;20203;-86
2022/06/18 12:14:02;;;;;;;10.02;3.17;;;;;;;;;;4969366;28;20189;-86
2022/06/18 12:16:38;;;;;;;8.02;2.85;;;;;;;;;;4978023;28;20185;-86
2022/06/18 12:19:19;;;;;;;11.27;3.53;;;;;;;;;;4969132;28;20184;-86
2022/06/18 12:21:52;;;;;;;6.72;3.35;;;;;;;;;;4966545;28;20236;-87
2022/06/18 12:24:41;;;;;;;9.85;3.45;;;;;;;;;;4969517;28;20185;-86
2022/06/18 12:27:06;;;;;;;5.05;3.13;;;;;;;;;;4987769;28;20188;-86
2022/06/18 12:29:51;;;;;;;7.43;3.17;;;;;;;;;;4970321;28;20184;-87
2022/06/18 12:32:35;;;;;;;8.20;3.13;;;;;;;;;;4965472;28;20240;-86
2022/06/18 12:35:00;;;;;;;11.00;3.40;;;;;;;;;;4971876;28;20290;-86
2022/06/18 12:37:44;;;;;;;11.30;3.72;;;;;;;;;;4971976;28;20241;-86
2022/06/18 12:40:19;;;;;;;12.73;3.88;;;;;;;;;;4969948;28;20180;-86
2022/06/18 12:43:05;;;;;;;8.32;3.00;;;;;;;;;;4972314;28;20267;-86
2022/06/18 12:45:34;;;;;;;9.57;3.40;;;;;;;;;;4970651;28;20177;-87
2022/06/18 12:48:08;;;;;;;7.57;3.20;;;;;;;;;;4969166;28;20202;-86
2022/06/18 12:50:36;;;;;;;9.63;3.88;;;;;;;;;;4965413;28;20181;-86
2022/06/18 12:53:16;;;;;;;11.77;3.53;;;;;;;;;;4970180;28;20310;-86
2022/06/18 12:55:44;;;;;;;11.55;3.55;;;;;;;;;;4969124;28;20187;-87
2022/06/18 12:58:28;;;;;;;12.23;3.70;;;;;;;;;;4967937;28;20250;-87
2022/06/18 13:01:02;;;;;;;8.93;3.58;;;;;;;;;;4972663;28;20310;-86
2022/06/18 13:03:27;;;;;;;10.25;4.03;;;;;;;;;;4971795;28;20184;-87
2022/06/18 13:06:19;;;;;;;14.33;3.67;;;;;;;;;;4973912;28;20195;-86
2022/06/18 13:09:03;;;;;;;13.35;4.03;;;;;;;;;;4980347;28;20429;-86
2022/06/18 13:11:38;;;;;;;14.65;4.25;;;;;;;;;;4969071;28;20196;-86
2022/06/18 13:14:09;;;;;;;11.40;4.05;;;;;;;;;;4969615;28;20188;-80
2022/06/18 13:16:39;;;;;;;12.27;3.72;;;;;;;;;;4961459;28;20187;-82
2022/06/18 13:19:07;;;;;;;13.13;3.92;;;;;;;;;;4983487;28;20177;-83
2022/06/18 13:21:32;;;;;;;13.90;3.78;;;;;;;;;;4965592;28;20233;-83
2022/06/18 13:29:57;;;;;;;16.17;4.60;;;;;;;;;;4972681;28;20192;-83
2022/06/18 13:32:31;;;;;;;11.98;3.97;;;;;;;;;;4969440;28;20209;-83
2022/06/18 13:35:26;;;;;;;11.52;3.72;;;;;;;;;;4971743;28;20189;-83
2022/06/18 13:37:57;;;;;;;11.93;3.83;;;;;;;;;;4952289;28;20264;-83
2022/06/18 13:40:30;;;;;;;12.65;3.88;;;;;;;;;;4973400;28;20180;-84
2022/06/18 13:43:10;;;;;;;16.05;5.07;;;;;;;;;;4970711;28;20204;-82
2022/06/18 13:45:48;;;;;;;12.60;4.15;;;;;;;;;;4975281;28;20184;-83
2022/06/18 13:48:17;;;;;;;13.48;4.30;;;;;;;;;;4967952;28;20181;-83
2022/06/18 13:51:06;;;;;;;13.48;5.00;;;;;;;;;;4973693;28;20177;-83
2022/06/18 13:53:33;;;;;;;13.15;4.47;;;;;;;;;;4962122;28;20204;-82
2022/06/18 13:55:59;;;;;;;12.68;4.32;;;;;;;;;;4969710;28;20192;-83
2022/06/18 13:58:26;;;;;;;17.38;4.70;;;;;;;;;;4970588;28;20219;-83
2022/06/18 14:01:03;;;;;;;17.15;4.93;;;;;;;;;;4972048;28;20189;-83
2022/06/18 14:03:28;;;;;;;15.57;4.65;;;;;;;;;;4973487;28;20180;-82
2022/06/18 14:05:56;;;;;;;10.30;4.00;;;;;;;;;;4973935;28;20228;-83
2022/06/18 14:08:28;;;;;;;12.90;4.45;;;;;;;;;;4968150;28;20181;-83
2022/06/18 14:10:58;;;;;;;13.68;3.92;;;;;;;;;;4970341;28;20197;-84
2022/06/18 14:13:25;;;;;;;15.60;4.75;;;;;;;;;;4969784;28;20197;-83
2022/06/18 14:15:55;;;;;;;17.20;4.65;;;;;;;;;;4970308;28;20178;-82
2022/06/18 14:18:21;;;;;;;15.32;4.53;;;;;;;;;;4974693;28;20208;-82
2022/06/18 14:20:58;;;;;;;13.43;4.50;;;;;;;;;;4975380;28;20180;-82
2022/06/18 14:23:40;;;;;;;16.02;4.90;;;;;;;;;;4981149;28;20176;-83
2022/06/18 14:26:14;;;;;;;22.60;5.07;;;;;;;;;;4974142;28;20219;-82
2022/06/18 14:28:42;;;;;;;13.23;4.13;;;;;;;;;;4984858;28;20249;-83
2022/06/18 14:31:07;;;;;;;14.68;4.60;;;;;;;;;;4976963;28;20271;-83
2022/06/18 14:33:38;;;;;;;13.67;4.70;;;;;;;;;;4993590;28;20267;-83
2022/06/18 14:36:13;;;;;;;11.98;3.72;;;;;;;;;;4976824;28;20415;-82
2022/06/18 14:38:38;;;;;;;14.85;4.05;;;;;;;;;;4992405;28;20178;-82
2022/06/18 14:43:58;;;;;;;13.38;4.35;;;;;;;;;;4992247;28;20210;-84
2022/06/18 14:46:42;;;;;;;11.43;4.15;;;;;;;;;;4978259;28;20176;-82
2022/06/18 14:49:13;;;;;;;21.00;5.43;;;;;;;;;;4973366;28;20193;-82
2022/06/18 14:51:57;;;;;;;15.57;4.60;;;;;;;;;;4982584;28;20226;-82
2022/06/18 14:54:41;;;;;;;20.88;5.13;;;;;;;;;;4981182;28;20177;-79
2022/06/18 14:57:21;;;;;;;17.92;4.18;;;;;;;;;;4990034;28;20180;-82
2022/06/18 14:59:52;;;;;;;11.30;4.32;;;;;;;;;;4980972;28;20263;-82
2022/06/18 15:02:18;;;;;;;14.60;4.40;;;;;;;;;;4976106;28;20212;-82
2022/06/18 15:04:49;;;;;;;14.23;4.65;;;;;;;;;;4994715;28;20265;-83
2022/06/18 15:07:14;;;;;;;13.50;4.72;;;;;;;;;;4979801;28;20180;-83
2022/06/18 15:09:46;;;;;;;24.08;5.18;;;;;;;;;;4991402;28;20188;-82
2022/06/18 15:12:13;;;;;;;16.23;4.80;;;;;;;;;;4987734;28;20214;-83
2022/06/18 15:14:46;;;;;;;19.55;5.32;;;;;;;;;;4976588;28;20186;-82